createdAt,value
2022-11-14T00:01:32.721Z,30.50
2022-11-14T00:04:19.346Z,36.13
2022-11-14T00:07:05.319Z,35.22
2022-11-14T00:09:51.540Z,33.67
2022-11-14T00:12:37.677Z,37.20
2022-11-14T00:15:24.018Z,36.53
2022-11-14T00:18:09.761Z,38.17
2022-11-14T00:20:56.103Z,32.40
2022-11-14T00:23:41.753Z,31.50
2022-11-14T00:26:28.235Z,33.50
2022-11-14T00:29:15.848Z,29.63
2022-11-14T00:32:01.901Z,32.28
2022-11-14T00:34:48.670Z,27.10
2022-11-14T00:37:35.717Z,29.35
2022-11-14T00:40:21.454Z,35.45
2022-11-14T00:43:07.699Z,28.42
2022-11-14T00:45:53.662Z,30.30
2022-11-14T00:48:40.230Z,33.05
2022-11-14T00:51:26.046Z,31.73
2022-11-14T00:54:12.758Z,29.08
2022-11-14T00:56:58.699Z,31.85
2022-11-14T00:59:44.798Z,34.97
2022-11-14T01:02:31.160Z,34.38
2022-11-14T01:05:17.680Z,35.55
2022-11-14T01:08:03.485Z,30.55
2022-11-14T01:10:51.331Z,30.42
2022-11-14T01:13:37.809Z,34.10
2022-11-14T01:16:24.180Z,33.30
2022-11-14T01:19:10.051Z,34.85
2022-11-14T01:21:56.235Z,30.27
2022-11-14T01:24:42.225Z,30.85
2022-11-14T01:27:31.995Z,34.45
2022-11-14T01:30:18.338Z,32.38
2022-11-14T01:33:06.111Z,33.38
2022-11-14T01:35:52.259Z,35.90
2022-11-14T01:38:38.572Z,34.92
2022-11-14T01:41:25.573Z,37.65
2022-11-14T01:44:45.812Z,31.92
2022-11-14T01:47:33.685Z,37.67
2022-11-14T01:50:19.941Z,31.90
2022-11-14T01:53:06.220Z,31.05
2022-11-14T01:55:55.383Z,35.75
2022-11-14T01:58:50.585Z,39.53
2022-11-14T02:01:45.184Z,32.10
2022-11-14T02:04:41.196Z,32.38
2022-11-14T02:07:31.189Z,32.35
2022-11-14T02:10:21.224Z,31.08
2022-11-14T02:13:08.551Z,31.35
2022-11-14T02:15:54.751Z,32.97
2022-11-14T02:18:40.942Z,39.90
2022-11-14T02:21:27.210Z,32.83
2022-11-14T02:24:14.354Z,35.22
2022-11-14T02:27:00.043Z,29.42
2022-11-14T02:29:46.274Z,38.72
2022-11-14T02:32:45.018Z,33.20
2022-11-14T02:35:38.732Z,31.48
2022-11-14T02:38:24.806Z,32.13
2022-11-14T02:41:11.092Z,30.83
2022-11-14T02:43:57.051Z,31.70
2022-11-14T02:46:43.500Z,36.85
2022-11-14T02:49:29.524Z,31.80
2022-11-14T02:52:15.526Z,32.22
2022-11-14T02:55:02.078Z,27.92
2022-11-14T02:57:48.114Z,31.23
2022-11-14T03:00:36.722Z,33.08
2022-11-14T03:03:27.268Z,32.65
2022-11-14T03:06:13.745Z,30.08
2022-11-14T03:09:00.144Z,31.52
2022-11-14T03:11:45.849Z,34.40
2022-11-14T03:14:32.301Z,28.38
2022-11-14T03:17:18.465Z,29.15
2022-11-14T03:20:06.077Z,32.40
2022-11-14T03:22:52.170Z,29.65
2022-11-14T03:25:38.487Z,31.10
2022-11-14T03:28:24.273Z,33.22
2022-11-14T03:31:12.630Z,36.67
2022-11-14T03:33:58.816Z,32.42
2022-11-14T03:36:45.439Z,31.83
2022-11-14T03:39:31.236Z,31.50
2022-11-14T03:42:17.216Z,32.63
2022-11-14T03:45:03.869Z,29.92
2022-11-14T03:47:49.940Z,30.13
2022-11-14T03:50:36.205Z,33.38
2022-11-14T03:53:22.967Z,34.90
2022-11-14T03:56:08.916Z,37.25
2022-11-14T03:58:55.029Z,37.25
2022-11-14T04:01:41.048Z,36.55
2022-11-14T04:04:27.274Z,35.13
2022-11-14T04:07:13.305Z,31.02
2022-11-14T04:09:59.723Z,34.08
2022-11-14T04:12:54.161Z,33.70
2022-11-14T04:15:40.508Z,33.88
2022-11-14T04:18:27.406Z,32.10
2022-11-14T04:21:14.210Z,36.97
2022-11-14T04:24:00.284Z,35.95
2022-11-14T04:26:46.397Z,37.88
2022-11-14T04:29:32.150Z,41.53
2022-11-14T04:32:18.398Z,35.38
2022-11-14T04:35:04.778Z,37.38
2022-11-14T04:37:51.075Z,36.33
2022-11-14T04:40:36.993Z,34.30
2022-11-14T04:43:23.249Z,35.92
2022-11-14T04:46:09.157Z,37.08
2022-11-14T04:48:55.327Z,33.47
2022-11-14T04:51:41.373Z,41.70
2022-11-14T04:54:27.575Z,34.22
2022-11-14T04:57:14.735Z,36.45
2022-11-14T05:00:00.997Z,33.40
2022-11-14T05:02:46.976Z,41.40
2022-11-14T05:05:35.959Z,36.47
2022-11-14T05:08:25.278Z,39.42
2022-11-14T05:11:16.509Z,44.97
2022-11-14T05:14:03.397Z,35.60
2022-11-14T05:16:49.727Z,40.45
2022-11-14T05:19:35.660Z,39.60
2022-11-14T05:22:22.153Z,37.17
2022-11-14T05:25:08.854Z,38.42
2022-11-14T05:27:55.680Z,42.13
2022-11-14T05:30:41.586Z,36.10
2022-11-14T05:33:27.690Z,34.60
2022-11-14T05:36:16.926Z,43.67
2022-11-14T05:39:03.562Z,39.47
2022-11-14T05:41:49.657Z,43.80
2022-11-14T05:44:35.910Z,39.60
2022-11-14T05:47:21.817Z,42.30
2022-11-14T05:50:08.507Z,42.20
2022-11-14T05:52:54.146Z,41.65
2022-11-14T05:55:40.063Z,41.22
2022-11-14T05:58:26.240Z,59.83
2022-11-14T06:01:17.188Z,76.65
2022-11-14T06:04:06.762Z,72.75
2022-11-14T06:06:53.157Z,75.32
2022-11-14T06:09:39.355Z,68.43
2022-11-14T06:12:25.989Z,63.70
2022-11-14T06:15:12.000Z,52.80
2022-11-14T06:17:58.443Z,50.60
2022-11-14T06:20:44.663Z,47.15
2022-11-14T06:23:30.986Z,45.08
2022-11-14T06:26:25.665Z,46.75
2022-11-14T06:29:11.839Z,50.55
2022-11-14T06:31:57.972Z,51.95
2022-11-14T06:34:44.214Z,52.75
2022-11-14T06:37:33.543Z,46.88
2022-11-14T06:40:20.721Z,71.47
2022-11-14T06:43:07.062Z,63.03
2022-11-14T06:45:56.765Z,60.85
2022-11-14T06:48:43.979Z,52.53
2022-11-14T06:51:30.439Z,54.40
2022-11-14T06:54:16.163Z,49.40
2022-11-14T06:57:02.319Z,54.40
2022-11-14T06:59:48.493Z,48.40
2022-11-14T07:02:34.579Z,50.97
2022-11-14T07:05:20.326Z,56.35
2022-11-14T07:08:06.715Z,53.35
2022-11-14T07:10:53.233Z,51.58
2022-11-14T07:13:39.687Z,53.78
2022-11-14T07:16:37.619Z,54.13
2022-11-14T07:19:23.882Z,53.65
2022-11-14T07:22:10.386Z,64.88
2022-11-14T07:24:56.562Z,60.42
2022-11-14T07:27:42.444Z,66.00
2022-11-14T07:30:28.593Z,69.43
2022-11-14T07:33:14.657Z,70.53
2022-11-14T07:36:01.295Z,77.25
2022-11-14T07:38:47.694Z,75.78
2022-11-14T07:41:34.164Z,74.32
2022-11-14T07:44:20.018Z,71.45
2022-11-14T07:47:06.230Z,66.05
2022-11-14T07:49:52.297Z,71.95
2022-11-14T07:52:38.752Z,75.93
2022-11-14T07:55:24.718Z,77.00
2022-11-14T07:58:11.486Z,66.70
2022-11-14T08:01:02.235Z,71.30
2022-11-14T08:03:48.859Z,75.35
2022-11-14T08:06:35.219Z,71.35
2022-11-14T08:09:23.145Z,76.22
2022-11-14T08:12:08.975Z,74.80
2022-11-14T08:14:55.478Z,71.55
2022-11-14T08:17:41.605Z,80.60
2022-11-14T08:20:28.529Z,70.70
2022-11-14T08:23:15.113Z,68.43
2022-11-14T08:26:01.881Z,63.67
2022-11-14T08:28:47.874Z,63.75
2022-11-14T08:31:34.256Z,68.55
2022-11-14T08:34:22.475Z,64.28
2022-11-14T08:37:08.755Z,61.65
2022-11-14T08:39:54.878Z,60.50
2022-11-14T08:42:41.400Z,65.40
2022-11-14T08:45:27.539Z,64.47
2022-11-14T08:48:14.275Z,59.60
2022-11-14T08:51:06.187Z,61.45
2022-11-14T08:53:53.088Z,65.65
2022-11-14T08:56:39.294Z,54.97
2022-11-14T08:59:25.426Z,55.35
2022-11-14T09:02:16.234Z,59.60
2022-11-14T09:05:02.658Z,55.35
2022-11-14T09:07:48.877Z,48.38
2022-11-14T09:10:37.369Z,44.30
2022-11-14T09:13:23.689Z,54.88
2022-11-14T09:16:10.142Z,49.03
2022-11-14T09:18:56.505Z,47.95
2022-11-14T09:21:43.169Z,46.83
2022-11-14T09:24:30.008Z,50.25
2022-11-14T09:27:17.238Z,45.47
2022-11-14T09:30:06.016Z,46.10
2022-11-14T09:32:52.856Z,39.35
2022-11-14T09:35:39.093Z,35.80
2022-11-14T09:38:26.552Z,38.40
2022-11-14T09:41:33.881Z,37.92
2022-11-14T09:44:47.724Z,50.38
2022-11-14T09:47:42.860Z,46.88
2022-11-14T09:50:37.417Z,45.78
2022-11-14T09:53:52.944Z,42.75
2022-11-14T09:56:39.427Z,45.45
2022-11-14T09:59:26.634Z,46.30
2022-11-14T10:03:03.328Z,41.42
2022-11-14T10:06:08.628Z,45.67
2022-11-14T10:09:06.789Z,38.05
2022-11-14T10:12:36.450Z,45.67
2022-11-14T10:15:52.269Z,39.13
2022-11-14T10:19:30.854Z,33.10
2022-11-14T10:22:58.621Z,36.90
2022-11-14T10:26:19.927Z,39.25
2022-11-14T10:29:27.586Z,36.17
2022-11-14T10:32:22.370Z,36.53
2022-11-14T10:35:28.745Z,32.67
2022-11-14T10:39:07.306Z,30.15
2022-11-14T10:42:03.185Z,32.10
2022-11-14T10:45:10.619Z,29.65
2022-11-14T10:48:15.995Z,33.22
2022-11-14T10:51:34.866Z,30.98
2022-11-14T10:55:10.138Z,26.40
2022-11-14T10:57:58.017Z,35.40
2022-11-14T11:00:44.633Z,27.10
2022-11-14T11:03:59.255Z,25.10
2022-11-14T11:06:46.066Z,28.08
2022-11-14T11:09:51.493Z,37.80
2022-11-14T11:12:37.919Z,30.23
2022-11-14T11:15:32.283Z,32.00
2022-11-14T11:18:33.618Z,31.20
2022-11-14T11:21:23.420Z,29.30
2022-11-14T11:24:10.172Z,26.13
2022-11-14T11:27:29.222Z,27.85
2022-11-14T11:30:23.281Z,28.83
2022-11-14T11:33:22.412Z,28.63
2022-11-14T11:36:19.545Z,27.15
2022-11-14T11:39:05.617Z,27.52
2022-11-14T11:42:11.055Z,24.90
2022-11-14T11:45:04.157Z,24.80
2022-11-14T11:48:19.778Z,29.55
2022-11-14T11:51:14.145Z,23.10
2022-11-14T11:54:24.760Z,25.75
2022-11-14T11:57:21.403Z,22.17
2022-11-14T12:00:21.174Z,20.05
2022-11-14T12:03:14.387Z,19.88
2022-11-14T12:06:24.863Z,18.70
2022-11-14T12:09:22.218Z,22.02
2022-11-14T12:12:35.630Z,26.70
2022-11-14T12:16:24.665Z,18.38
2022-11-14T12:19:41.353Z,22.83
2022-11-14T12:22:46.734Z,22.50
2022-11-14T12:26:17.719Z,18.23
2022-11-14T12:29:12.857Z,17.63
2022-11-14T12:32:06.869Z,22.50
2022-11-14T12:34:53.547Z,17.27
2022-11-14T12:37:50.042Z,20.58
2022-11-14T12:40:48.387Z,14.60
2022-11-14T12:43:45.100Z,15.80
2022-11-14T12:47:05.853Z,19.08
2022-11-14T12:49:55.831Z,14.50
2022-11-14T12:52:42.922Z,15.27
2022-11-14T12:55:29.509Z,15.37
2022-11-14T12:58:24.794Z,14.98
2022-11-14T13:01:48.256Z,13.52
2022-11-14T13:04:57.846Z,13.32
2022-11-14T13:07:48.648Z,14.65
2022-11-14T13:10:42.034Z,17.50
2022-11-14T13:13:46.948Z,14.75
2022-11-14T13:16:52.060Z,19.13
2022-11-14T13:20:05.208Z,16.38
2022-11-14T13:22:51.430Z,17.83
2022-11-14T13:25:37.573Z,13.77
2022-11-14T13:28:38.693Z,14.27
2022-11-14T13:31:35.332Z,15.60
2022-11-14T13:34:37.397Z,16.15
2022-11-14T13:37:47.802Z,14.98
2022-11-14T13:41:11.785Z,21.58
2022-11-14T13:44:34.414Z,15.30
2022-11-14T13:48:16.281Z,16.83
2022-11-14T13:51:28.988Z,16.88
2022-11-14T13:54:18.252Z,22.45
2022-11-14T13:57:35.377Z,18.55
2022-11-14T14:00:21.779Z,24.25
2022-11-14T14:03:28.253Z,25.75
2022-11-14T14:07:05.405Z,19.65
2022-11-14T14:10:08.570Z,18.30
2022-11-14T14:13:23.423Z,21.80
2022-11-14T14:17:01.693Z,18.42
2022-11-14T14:20:18.742Z,21.53
2022-11-14T14:54:04.051Z,25.30
2022-11-14T14:57:02.842Z,21.02
2022-11-14T15:00:05.981Z,24.35
2022-11-14T15:02:56.616Z,22.88
2022-11-14T15:05:43.155Z,26.67
2022-11-14T15:08:31.950Z,22.75
2022-11-14T15:11:18.895Z,18.08
2022-11-14T15:14:05.208Z,17.13
2022-11-14T15:16:53.305Z,23.67
2022-11-14T15:19:45.748Z,19.58
2022-11-14T15:22:33.057Z,20.15
2022-11-14T15:25:20.440Z,17.50
2022-11-14T15:28:21.017Z,19.40
2022-11-14T15:31:17.184Z,21.02
2022-11-14T15:34:34.408Z,17.08
2022-11-14T15:37:22.851Z,19.23
2022-11-14T15:40:39.429Z,20.38
2022-11-14T15:43:50.619Z,30.33
2022-11-14T15:46:46.760Z,22.25
2022-11-14T15:49:33.822Z,20.15
2022-11-14T15:52:47.512Z,33.67
2022-11-14T15:55:33.496Z,22.30
2022-11-14T15:58:29.082Z,16.52
2022-11-14T16:01:23.938Z,15.90
2022-11-14T16:04:23.016Z,22.00
2022-11-14T16:07:14.696Z,17.38
2022-11-14T16:10:01.311Z,23.15
2022-11-14T16:12:52.255Z,25.20
2022-11-14T16:15:39.847Z,24.75
2022-11-14T16:18:25.718Z,18.55
2022-11-14T16:21:18.231Z,22.52
2022-11-14T16:24:05.839Z,19.13
2022-11-14T16:26:52.437Z,26.80
2022-11-14T16:29:38.510Z,29.10
2022-11-14T16:32:26.728Z,21.67
2022-11-14T16:35:14.785Z,20.60
2022-11-14T16:38:01.102Z,22.90
2022-11-14T16:40:47.239Z,21.15
2022-11-14T16:43:33.953Z,20.98
2022-11-14T16:46:19.783Z,20.35
2022-11-14T16:49:05.850Z,21.83
2022-11-14T16:51:52.433Z,20.67
2022-11-14T16:54:38.802Z,19.02
2022-11-14T16:57:25.304Z,16.88
2022-11-14T17:00:13.450Z,22.13
2022-11-14T17:02:59.541Z,18.52
2022-11-14T17:05:48.652Z,18.48
2022-11-14T17:08:34.740Z,19.60
2022-11-14T17:11:21.354Z,23.48
2022-11-14T17:14:07.629Z,20.00
2022-11-14T17:16:53.953Z,21.58
2022-11-14T17:19:45.921Z,22.23
2022-11-14T17:22:32.621Z,18.50
2022-11-14T17:25:18.894Z,21.67
2022-11-14T17:28:05.200Z,21.27
2022-11-14T17:30:51.259Z,23.75
2022-11-14T17:33:38.344Z,17.67
2022-11-14T17:36:29.109Z,29.83
2022-11-14T17:39:15.413Z,19.65
2022-11-14T17:42:01.275Z,23.88
2022-11-14T17:44:47.925Z,20.98
2022-11-14T17:47:33.711Z,21.48
2022-11-14T17:50:19.782Z,22.40
2022-11-14T17:53:06.631Z,21.00
2022-11-14T17:56:01.815Z,26.33
2022-11-14T17:58:51.141Z,27.75
2022-11-14T18:01:43.612Z,25.63
2022-11-14T18:04:31.802Z,28.25
2022-11-14T18:07:20.603Z,27.42
2022-11-14T18:10:07.181Z,37.50
2022-11-14T18:12:55.495Z,27.00
2022-11-14T18:15:41.439Z,24.88
2022-11-14T18:18:35.259Z,27.30
2022-11-14T18:21:31.781Z,25.08
2022-11-14T18:24:18.438Z,32.50
2022-11-14T18:27:04.358Z,32.30
2022-11-14T18:29:50.677Z,31.55
2022-11-14T18:32:36.582Z,29.25
2022-11-14T18:35:22.687Z,35.92
2022-11-14T18:38:08.525Z,28.42
2022-11-14T18:40:57.516Z,31.75
2022-11-14T18:43:45.128Z,38.00
2022-11-14T18:46:37.200Z,34.95
2022-11-14T18:49:28.395Z,33.55
2022-11-14T18:52:17.387Z,28.67
2022-11-14T18:55:08.420Z,32.40
2022-11-14T18:57:54.349Z,32.85
2022-11-14T19:00:40.317Z,39.42
2022-11-14T19:03:27.007Z,34.95
2022-11-14T19:06:14.046Z,33.25
2022-11-14T19:09:10.587Z,39.03
2022-11-14T19:12:15.660Z,36.63
2022-11-14T19:15:02.384Z,46.58
2022-11-14T19:17:49.032Z,42.92
2022-11-14T19:20:37.700Z,40.22
2022-11-14T19:23:24.216Z,36.78
2022-11-14T19:26:11.760Z,39.47
2022-11-14T19:29:06.487Z,45.50
2022-11-14T19:31:54.698Z,44.60
2022-11-14T19:34:46.810Z,48.03
2022-11-14T19:37:34.400Z,47.03
2022-11-14T19:40:20.757Z,48.00
2022-11-14T19:43:09.180Z,44.65
2022-11-14T19:46:00.133Z,48.25
2022-11-14T19:48:47.883Z,46.20
2022-11-14T19:51:34.734Z,48.42
2022-11-14T19:54:21.007Z,42.80
2022-11-14T19:57:06.962Z,43.90
2022-11-14T19:59:53.540Z,47.67
2022-11-14T20:02:40.619Z,45.50
2022-11-14T20:05:27.179Z,37.50
2022-11-14T20:08:13.229Z,36.28
2022-11-14T20:11:03.450Z,38.35
2022-11-14T20:13:50.698Z,39.58
2022-11-14T20:16:38.767Z,43.45
2022-11-14T20:19:25.039Z,42.53
2022-11-14T20:22:11.730Z,42.90
2022-11-14T20:24:57.858Z,41.13
2022-11-14T20:27:44.115Z,40.13
2022-11-14T20:30:30.230Z,37.35
2022-11-14T20:33:16.959Z,41.42
2022-11-14T20:36:10.839Z,45.40
2022-11-14T20:38:59.787Z,44.05
2022-11-14T20:41:45.790Z,45.40
2022-11-14T20:44:32.013Z,42.65
2022-11-14T20:47:18.489Z,40.80
2022-11-14T20:50:05.903Z,38.92
2022-11-14T20:52:51.932Z,34.58
2022-11-14T20:55:38.461Z,34.22
2022-11-14T20:58:24.490Z,39.97
2022-11-14T21:01:11.465Z,35.38
2022-11-14T21:03:58.629Z,36.70
2022-11-14T21:06:46.116Z,33.92
2022-11-14T21:09:32.838Z,32.75
2022-11-14T21:12:19.545Z,36.03
2022-11-14T21:15:07.504Z,40.67
2022-11-14T21:17:54.567Z,32.78
2022-11-14T21:20:40.427Z,40.10
2022-11-14T21:23:26.813Z,40.85
2022-11-14T21:26:19.076Z,37.60
2022-11-14T21:29:12.137Z,36.90
2022-11-14T21:32:01.709Z,33.35
2022-11-14T21:34:53.103Z,37.58
2022-11-14T21:37:38.927Z,32.40
2022-11-14T21:40:27.808Z,34.17
2022-11-14T21:43:15.750Z,34.00
2022-11-14T21:46:05.948Z,33.38
2022-11-14T21:48:52.856Z,29.15
2022-11-14T21:51:39.375Z,35.85
2022-11-14T21:54:27.743Z,29.60
2022-11-14T21:57:15.983Z,33.50
2022-11-14T22:00:02.736Z,33.33
2022-11-14T22:06:32.033Z,33.85
2022-11-14T22:10:28.383Z,22.63
2022-11-14T22:13:49.466Z,28.38
2022-11-14T22:17:38.174Z,32.67
2022-11-14T22:25:37.436Z,29.58
2022-11-14T22:28:54.861Z,30.63
2022-11-14T22:31:58.269Z,32.75
2022-11-14T22:35:11.150Z,31.75
2022-11-14T22:39:16.615Z,30.33
2022-11-14T22:43:35.927Z,26.45
2022-11-14T22:46:35.110Z,27.50
2022-11-14T22:49:21.514Z,27.35
2022-11-14T22:52:07.683Z,33.08
2022-11-14T22:54:57.142Z,29.75
2022-11-14T22:57:57.109Z,28.23
2022-11-14T23:01:05.720Z,26.70
2022-11-14T23:04:07.026Z,28.52
2022-11-14T23:06:59.775Z,35.88
2022-11-14T23:10:38.359Z,28.58
2022-11-14T23:14:19.622Z,27.13
2022-11-14T23:17:12.632Z,29.90
2022-11-14T23:20:28.680Z,33.67
2022-11-14T23:23:15.943Z,28.13
2022-11-14T23:26:37.926Z,31.02
2022-11-14T23:29:24.789Z,27.17
2022-11-14T23:32:10.937Z,30.95
2022-11-14T23:34:58.061Z,30.25
2022-11-14T23:38:09.262Z,32.22
2022-11-14T23:41:09.824Z,25.90
2022-11-14T23:44:07.956Z,29.40
2022-11-14T23:47:54.979Z,31.88
2022-11-14T23:50:42.224Z,28.63
2022-11-14T23:53:35.256Z,28.67
2022-11-14T23:56:26.716Z,29.10
2022-11-14T23:59:17.204Z,31.75
